createdAt,value
2018-03-06T00:00:14.454Z,89.50
2018-03-06T00:01:14.707Z,89.69
2018-03-06T00:02:14.952Z,89.97
2018-03-06T00:03:15.190Z,89.78
2018-03-06T00:04:15.436Z,89.97
2018-03-06T00:05:15.683Z,89.50
2018-03-06T00:06:15.934Z,89.59
2018-03-06T00:07:16.181Z,89.78
2018-03-06T00:08:16.425Z,89.59
2018-03-06T00:09:16.672Z,89.40
2018-03-06T00:10:16.924Z,89.50
2018-03-06T00:11:17.163Z,89.50
2018-03-06T00:12:17.412Z,89.50
2018-03-06T00:13:17.666Z,88.74
2018-03-06T00:14:17.907Z,89.12
2018-03-06T00:15:18.151Z,88.93
2018-03-06T00:16:18.401Z,89.40
2018-03-06T00:17:18.647Z,89.50
2018-03-06T00:18:18.892Z,89.50
2018-03-06T00:19:19.143Z,89.59
2018-03-06T00:20:19.387Z,89.78
2018-03-06T00:21:19.630Z,90.25
2018-03-06T00:22:19.885Z,90.06
2018-03-06T00:23:20.129Z,90.63
2018-03-06T00:24:20.376Z,90.44
2018-03-06T00:25:20.624Z,90.44
2018-03-06T00:26:20.866Z,90.54
2018-03-06T00:27:21.116Z,90.63
2018-03-06T00:28:21.361Z,90.63
2018-03-06T00:29:21.608Z,90.82
2018-03-06T00:30:21.853Z,90.82
2018-03-06T00:31:22.104Z,90.54
2018-03-06T00:32:22.395Z,90.54
2018-03-06T00:33:22.594Z,90.44
2018-03-06T00:34:22.841Z,90.06
2018-03-06T00:35:23.103Z,90.06
2018-03-06T00:36:23.350Z,89.97
2018-03-06T00:37:23.605Z,90.06
2018-03-06T00:38:23.899Z,90.25
2018-03-06T00:39:24.100Z,89.97
2018-03-06T00:40:24.344Z,89.59
2018-03-06T00:41:24.590Z,89.78
2018-03-06T00:42:24.834Z,89.22
2018-03-06T00:43:25.081Z,89.69
2018-03-06T00:44:25.327Z,89.31
2018-03-06T00:45:25.578Z,89.31
2018-03-06T00:46:25.819Z,89.50
2018-03-06T00:47:26.069Z,89.87
2018-03-06T00:48:26.316Z,89.87
2018-03-06T00:49:26.568Z,90.25
2018-03-06T00:50:26.862Z,90.63
2018-03-06T00:51:27.065Z,90.63
2018-03-06T00:52:27.307Z,90.16
2018-03-06T00:53:27.557Z,90.06
2018-03-06T00:54:27.803Z,89.97
2018-03-06T00:55:28.047Z,90.44
2018-03-06T00:56:28.294Z,90.73
2018-03-06T00:57:28.540Z,90.63
2018-03-06T00:58:28.785Z,90.44
2018-03-06T00:59:29.033Z,90.35
2018-03-06T01:00:29.281Z,90.54
2018-03-06T01:01:29.523Z,90.25
2018-03-06T01:02:29.771Z,90.44
2018-03-06T01:03:30.019Z,90.63
2018-03-06T01:04:30.263Z,90.25
2018-03-06T01:05:30.515Z,90.16
2018-03-06T01:06:30.759Z,90.82
2018-03-06T01:07:31.004Z,90.16
2018-03-06T01:08:31.251Z,90.16
2018-03-06T01:09:31.497Z,90.16
2018-03-06T01:10:31.744Z,90.16
2018-03-06T01:11:31.991Z,90.25
2018-03-06T01:12:32.238Z,90.25
2018-03-06T01:13:32.483Z,90.25
2018-03-06T01:14:32.729Z,89.97
2018-03-06T01:15:32.978Z,89.31
2018-03-06T01:16:33.226Z,89.50
2018-03-06T01:17:33.473Z,89.50
2018-03-06T01:18:33.719Z,89.78
2018-03-06T01:19:33.966Z,90.06
2018-03-06T01:20:34.204Z,89.40
2018-03-06T01:21:34.466Z,89.31
2018-03-06T01:22:34.713Z,89.69
2018-03-06T01:23:34.960Z,89.59
2018-03-06T01:24:35.206Z,89.40
2018-03-06T01:25:35.458Z,89.31
2018-03-06T01:26:35.697Z,89.87
2018-03-06T01:27:35.944Z,89.54
2018-03-06T01:28:36.191Z,89.78
2018-03-06T01:29:36.435Z,89.59
2018-03-06T01:30:36.682Z,89.87
2018-03-06T01:31:36.938Z,89.97
2018-03-06T01:32:37.175Z,89.22
2018-03-06T01:33:37.416Z,89.69
2018-03-06T01:34:37.665Z,89.31
2018-03-06T01:35:37.912Z,89.78
2018-03-06T01:36:38.149Z,89.50
2018-03-06T01:37:38.403Z,89.40
2018-03-06T01:38:38.642Z,89.45
2018-03-06T01:39:38.890Z,89.26
2018-03-06T01:40:39.136Z,89.36
2018-03-06T01:41:39.380Z,89.73
2018-03-06T01:42:39.625Z,89.64
2018-03-06T01:43:39.869Z,89.73
2018-03-06T01:44:40.117Z,90.02
2018-03-06T01:45:40.368Z,89.45
2018-03-06T01:46:40.613Z,89.45
2018-03-06T01:47:40.859Z,89.54
2018-03-06T01:48:41.104Z,89.83
2018-03-06T01:49:41.350Z,89.26
2018-03-06T01:50:41.596Z,89.36
2018-03-06T01:51:41.840Z,89.26
2018-03-06T01:52:42.073Z,89.54
2018-03-06T01:53:42.326Z,89.26
2018-03-06T01:54:42.574Z,89.36
2018-03-06T01:55:42.819Z,89.73
2018-03-06T01:56:43.063Z,90.21
2018-03-06T01:57:43.307Z,90.21
2018-03-06T01:58:43.554Z,90.11
2018-03-06T01:59:43.802Z,90.30
2018-03-06T02:00:44.048Z,89.83
2018-03-06T02:01:44.301Z,89.64
2018-03-06T02:02:44.537Z,89.92
2018-03-06T02:03:44.778Z,89.83
2018-03-06T02:04:45.023Z,89.73
2018-03-06T02:05:45.262Z,89.73
2018-03-06T02:06:45.505Z,89.92
2018-03-06T02:07:45.749Z,89.92
2018-03-06T02:08:46.000Z,89.73
2018-03-06T02:09:46.246Z,89.64
2018-03-06T02:10:46.490Z,89.92
2018-03-06T02:11:46.736Z,89.07
2018-03-06T02:12:46.982Z,89.45
2018-03-06T02:13:47.230Z,89.26
2018-03-06T02:14:47.480Z,89.54
2018-03-06T02:15:47.722Z,89.45
2018-03-06T02:16:47.968Z,89.73
2018-03-06T02:17:48.214Z,89.54
2018-03-06T02:18:48.459Z,89.54
2018-03-06T02:19:48.708Z,89.45
2018-03-06T02:20:48.953Z,89.73
2018-03-06T02:21:49.200Z,89.73
2018-03-06T02:22:49.452Z,89.36
2018-03-06T02:23:49.693Z,89.64
2018-03-06T02:24:49.934Z,89.92
2018-03-06T02:25:50.184Z,89.83
2018-03-06T02:26:50.433Z,89.83
2018-03-06T02:27:50.679Z,89.54
2018-03-06T02:28:50.925Z,89.92
2018-03-06T02:29:51.169Z,89.54
2018-03-06T02:30:51.418Z,89.83
2018-03-06T02:31:51.663Z,89.45
2018-03-06T02:32:51.907Z,89.54
2018-03-06T02:33:52.155Z,89.45
2018-03-06T02:34:52.401Z,89.26
2018-03-06T02:35:52.648Z,89.64
2018-03-06T02:36:52.895Z,89.36
2018-03-06T02:37:53.141Z,88.98
2018-03-06T02:38:53.389Z,89.36
2018-03-06T02:39:53.633Z,89.54
2018-03-06T02:40:53.892Z,89.54
2018-03-06T02:41:54.137Z,89.83
2018-03-06T02:42:54.380Z,89.73
2018-03-06T02:43:54.627Z,90.21
2018-03-06T02:44:54.872Z,90.11
2018-03-06T02:45:55.122Z,90.02
2018-03-06T02:46:55.366Z,89.73
2018-03-06T02:47:55.674Z,89.83
2018-03-06T02:48:55.917Z,89.73
2018-03-06T02:49:56.162Z,89.45
2018-03-06T02:50:56.408Z,89.26
2018-03-06T02:51:56.655Z,89.07
2018-03-06T02:52:56.933Z,89.73
2018-03-06T02:53:57.135Z,89.92
2018-03-06T02:54:57.379Z,89.45
2018-03-06T02:55:57.621Z,90.11
2018-03-06T02:56:57.867Z,90.21
2018-03-06T02:57:58.111Z,89.92
2018-03-06T02:58:58.357Z,89.73
2018-03-06T02:59:58.605Z,89.92
2018-03-06T03:00:58.849Z,90.21
2018-03-06T03:01:59.101Z,90.11
2018-03-06T03:02:59.342Z,90.21
2018-03-06T03:03:59.588Z,90.21
2018-03-06T03:04:59.832Z,89.92
2018-03-06T03:06:00.078Z,89.92
2018-03-06T03:07:00.326Z,90.02
2018-03-06T03:08:00.565Z,89.73
2018-03-06T03:09:00.808Z,89.83
2018-03-06T03:10:01.050Z,89.45
2018-03-06T03:11:01.331Z,89.73
2018-03-06T03:12:01.576Z,90.11
2018-03-06T03:13:01.821Z,90.11
2018-03-06T03:14:02.065Z,90.68
2018-03-06T03:15:02.320Z,90.68
2018-03-06T03:16:02.559Z,90.68
2018-03-06T03:17:02.803Z,89.92
2018-03-06T03:18:03.048Z,90.02
2018-03-06T03:19:03.298Z,90.21
2018-03-06T03:20:03.543Z,89.45
2018-03-06T03:21:03.797Z,89.92
2018-03-06T03:22:04.036Z,90.02
2018-03-06T03:23:04.286Z,90.30
2018-03-06T03:24:04.534Z,90.59
2018-03-06T03:25:04.771Z,90.59
2018-03-06T03:26:05.023Z,90.59
2018-03-06T03:27:05.262Z,90.59
2018-03-06T03:28:05.509Z,90.59
2018-03-06T03:29:05.753Z,90.40
2018-03-06T03:30:06.000Z,90.11
2018-03-06T03:31:06.248Z,90.30
2018-03-06T03:32:06.490Z,90.11
2018-03-06T03:33:06.733Z,90.02
2018-03-06T03:34:06.978Z,90.30
2018-03-06T03:35:07.225Z,89.73
2018-03-06T03:36:07.474Z,89.92
2018-03-06T03:37:07.717Z,90.21
2018-03-06T03:38:07.967Z,89.83
2018-03-06T03:39:08.213Z,90.21
2018-03-06T03:40:08.462Z,90.21
2018-03-06T03:41:08.703Z,90.11
2018-03-06T03:42:08.981Z,90.40
2018-03-06T03:43:09.223Z,90.77
2018-03-06T03:44:09.473Z,90.59
2018-03-06T03:45:09.714Z,90.21
2018-03-06T03:46:09.962Z,90.21
2018-03-06T03:47:10.205Z,90.11
2018-03-06T03:48:10.450Z,90.21
2018-03-06T03:49:10.697Z,90.21
2018-03-06T03:50:10.944Z,90.11
2018-03-06T03:51:11.190Z,90.11
2018-03-06T03:52:11.439Z,90.21
2018-03-06T03:53:11.683Z,89.73
2018-03-06T03:54:11.930Z,89.73
2018-03-06T03:55:12.176Z,90.21
2018-03-06T03:56:12.420Z,90.21
2018-03-06T03:57:12.661Z,90.21
2018-03-06T03:58:12.904Z,90.21
2018-03-06T03:59:13.149Z,89.83
2018-03-06T04:00:13.396Z,90.02
2018-03-06T04:01:13.639Z,89.54
2018-03-06T04:02:13.885Z,89.73
2018-03-06T04:03:14.138Z,89.83
2018-03-06T04:04:14.409Z,89.36
2018-03-06T04:05:14.639Z,89.36
2018-03-06T04:06:14.870Z,89.92
2018-03-06T04:07:15.116Z,89.45
2018-03-06T04:08:15.361Z,89.36
2018-03-06T04:09:15.608Z,89.54
2018-03-06T04:10:15.857Z,89.45
2018-03-06T04:11:16.104Z,89.36
2018-03-06T04:12:16.347Z,88.89
2018-03-06T04:13:16.595Z,88.89
2018-03-06T04:14:16.836Z,88.89
2018-03-06T04:15:17.085Z,88.70
2018-03-06T04:16:17.331Z,88.42
2018-03-06T04:17:17.632Z,88.51
2018-03-06T04:18:17.827Z,88.13
2018-03-06T04:19:18.074Z,87.56
2018-03-06T04:20:18.319Z,87.66
2018-03-06T04:21:18.563Z,87.37
2018-03-06T04:22:18.809Z,87.75
2018-03-06T04:23:19.056Z,87.75
2018-03-06T04:24:19.334Z,87.47
2018-03-06T04:25:19.552Z,88.04
2018-03-06T04:26:19.796Z,88.23
2018-03-06T04:27:20.042Z,88.42
2018-03-06T04:28:20.289Z,88.32
2018-03-06T04:29:20.535Z,87.37
2018-03-06T04:30:20.787Z,87.56
2018-03-06T04:31:21.029Z,87.47
2018-03-06T04:32:21.280Z,87.56
2018-03-06T04:33:21.526Z,87.79
2018-03-06T04:34:21.772Z,87.66
2018-03-06T04:35:22.019Z,88.23
2018-03-06T04:36:22.263Z,87.85
2018-03-06T04:37:22.512Z,88.70
2018-03-06T04:38:22.769Z,88.32
2018-03-06T04:39:23.015Z,88.74
2018-03-06T04:40:23.258Z,88.98
2018-03-06T04:41:23.506Z,89.17
2018-03-06T04:42:23.752Z,89.12
2018-03-06T04:43:23.997Z,89.40
2018-03-06T04:44:24.254Z,88.93
2018-03-06T04:45:24.502Z,89.45
2018-03-06T04:46:24.750Z,89.50
2018-03-06T04:47:25.001Z,89.59
2018-03-06T04:48:25.250Z,89.97
2018-03-06T04:49:25.503Z,89.22
2018-03-06T04:50:25.746Z,89.78
2018-03-06T04:51:25.989Z,90.35
2018-03-06T04:52:26.240Z,90.82
2018-03-06T04:53:26.490Z,91.29
2018-03-06T04:54:26.740Z,91.20
2018-03-06T04:55:26.984Z,91.58
2018-03-06T04:56:27.240Z,91.58
2018-03-06T04:57:27.475Z,91.39
2018-03-06T04:58:27.721Z,91.58
2018-03-06T04:59:27.967Z,92.33
2018-03-06T05:00:28.221Z,91.96
2018-03-06T05:01:28.468Z,91.77
2018-03-06T05:02:28.714Z,92.43
2018-03-06T05:03:28.959Z,92.47
2018-03-06T05:04:29.223Z,92.76
2018-03-06T05:05:29.456Z,92.71
2018-03-06T05:06:29.706Z,92.29
2018-03-06T05:07:29.954Z,92.57
2018-03-06T05:08:30.196Z,92.38
2018-03-06T05:09:30.449Z,92.52
2018-03-06T05:10:30.697Z,92.71
2018-03-06T05:11:30.950Z,92.57
2018-03-06T05:12:31.206Z,92.38
2018-03-06T05:13:31.448Z,92.43
2018-03-06T05:14:31.709Z,92.52
2018-03-06T05:15:31.954Z,92.61
2018-03-06T05:16:32.201Z,92.71
2018-03-06T05:17:32.445Z,92.33
2018-03-06T05:18:32.695Z,92.57
2018-03-06T05:19:32.936Z,92.71
2018-03-06T05:20:33.206Z,92.80
2018-03-06T05:21:33.432Z,92.71
2018-03-06T05:22:33.675Z,92.80
2018-03-06T05:23:33.929Z,92.33
2018-03-06T05:24:34.177Z,92.66
2018-03-06T05:25:34.424Z,92.90
2018-03-06T05:26:34.674Z,92.61
2018-03-06T05:27:34.921Z,92.61
2018-03-06T05:28:35.166Z,92.43
2018-03-06T05:29:35.431Z,92.61
2018-03-06T05:30:35.679Z,92.52
2018-03-06T05:31:35.931Z,92.52
2018-03-06T05:32:36.178Z,92.61
2018-03-06T05:33:36.422Z,92.52
2018-03-06T05:34:36.674Z,92.61
2018-03-06T05:35:36.920Z,92.71
2018-03-06T05:36:37.176Z,92.71
2018-03-06T05:37:37.430Z,92.61
2018-03-06T05:38:37.677Z,92.52
2018-03-06T05:39:37.923Z,92.61
2018-03-06T05:40:38.172Z,92.80
2018-03-06T05:41:38.424Z,92.71
2018-03-06T05:42:38.668Z,92.71
2018-03-06T05:43:38.921Z,92.71
2018-03-06T05:44:39.162Z,92.57
2018-03-06T05:45:39.415Z,92.52
2018-03-06T05:46:39.662Z,92.71
2018-03-06T05:47:39.908Z,92.80
2018-03-06T05:48:40.158Z,92.80
2018-03-06T05:49:40.407Z,92.80
2018-03-06T05:50:40.662Z,92.80
2018-03-06T05:51:40.905Z,92.80
2018-03-06T05:52:41.156Z,92.61
2018-03-06T05:53:41.405Z,92.71
2018-03-06T05:54:41.651Z,92.71
2018-03-06T05:55:41.898Z,92.99
2018-03-06T05:56:42.146Z,92.90
2018-03-06T05:57:42.398Z,92.80
2018-03-06T05:58:42.642Z,92.71
2018-03-06T05:59:42.895Z,92.90
2018-03-06T06:00:43.154Z,92.71
2018-03-06T06:01:43.390Z,92.61
2018-03-06T06:02:43.643Z,92.71
2018-03-06T06:03:43.891Z,92.71
2018-03-06T06:04:44.146Z,92.80
2018-03-06T06:05:44.398Z,92.61
2018-03-06T06:06:44.642Z,92.71
2018-03-06T06:07:44.899Z,92.80
2018-03-06T06:08:45.148Z,92.43
2018-03-06T06:09:45.400Z,92.14
2018-03-06T06:10:45.652Z,92.71
2018-03-06T06:11:45.902Z,92.71
2018-03-06T06:12:46.148Z,92.80
2018-03-06T06:13:46.396Z,92.71
2018-03-06T06:14:46.646Z,92.52
2018-03-06T06:15:46.895Z,92.61
2018-03-06T06:16:47.157Z,92.61
2018-03-06T06:17:47.410Z,92.52
2018-03-06T06:18:47.660Z,92.52
2018-03-06T06:19:47.909Z,93.09
2018-03-06T06:20:48.158Z,93.09
2018-03-06T06:21:48.406Z,92.90
2018-03-06T06:22:48.659Z,92.99
2018-03-06T06:23:48.910Z,93.09
2018-03-06T06:24:49.160Z,93.09
2018-03-06T06:25:49.411Z,93.09
2018-03-06T06:26:49.651Z,93.18
2018-03-06T06:27:49.916Z,93.37
2018-03-06T06:28:50.165Z,92.99
2018-03-06T06:29:50.418Z,93.09
2018-03-06T06:30:50.670Z,92.99
2018-03-06T06:31:50.922Z,93.09
2018-03-06T06:32:51.175Z,93.09
2018-03-06T06:33:51.423Z,93.37
2018-03-06T06:34:51.668Z,92.61
2018-03-06T06:35:51.921Z,92.61
2018-03-06T06:36:52.169Z,92.61
2018-03-06T06:37:52.417Z,92.80
2018-03-06T06:38:52.669Z,92.90
2018-03-06T06:39:52.918Z,92.61
2018-03-06T06:40:53.159Z,92.80
2018-03-06T06:41:53.406Z,92.90
2018-03-06T06:42:53.660Z,92.90
2018-03-06T06:43:53.908Z,92.61
2018-03-06T06:44:54.157Z,92.61
2018-03-06T06:45:54.408Z,92.52
2018-03-06T06:46:54.662Z,92.52
2018-03-06T06:47:54.907Z,92.99
2018-03-06T06:48:55.157Z,92.33
2018-03-06T06:49:55.412Z,92.71
2018-03-06T06:50:55.653Z,92.14
2018-03-06T06:51:55.903Z,92.14
2018-03-06T06:52:56.152Z,92.33
2018-03-06T06:53:56.402Z,92.33
2018-03-06T06:54:56.652Z,92.14
2018-03-06T06:55:56.901Z,91.96
2018-03-06T06:56:57.153Z,91.86
2018-03-06T06:57:57.402Z,91.86
2018-03-06T06:58:57.651Z,91.86
2018-03-06T06:59:57.903Z,91.77
2018-03-06T07:00:58.152Z,91.77
2018-03-06T07:01:58.396Z,91.86
2018-03-06T07:02:58.646Z,92.14
2018-03-06T07:03:58.896Z,92.05
2018-03-06T07:04:59.149Z,92.14
2018-03-06T07:05:59.395Z,92.14
2018-03-06T07:06:59.642Z,91.96
2018-03-06T07:07:59.891Z,91.77
2018-03-06T07:09:00.141Z,91.67
2018-03-06T07:10:00.390Z,92.24
2018-03-06T07:11:00.638Z,91.86
2018-03-06T07:12:00.886Z,92.05
2018-03-06T07:13:01.137Z,91.77
2018-03-06T07:14:01.388Z,91.39
2018-03-06T07:15:01.636Z,91.67
2018-03-06T07:16:01.889Z,91.58
2018-03-06T07:17:02.137Z,91.43
2018-03-06T07:18:02.388Z,91.24
2018-03-06T07:19:02.632Z,91.62
2018-03-06T07:20:02.884Z,90.86
2018-03-06T07:21:03.133Z,91.05
2018-03-06T07:22:03.381Z,91.34
2018-03-06T07:23:03.636Z,91.34
2018-03-06T07:24:03.881Z,90.39
2018-03-06T07:25:04.125Z,90.77
2018-03-06T07:26:04.372Z,90.49
2018-03-06T07:27:04.617Z,90.20
2018-03-06T07:28:04.867Z,90.11
2018-03-06T07:29:05.113Z,89.36
2018-03-06T07:30:05.365Z,89.83
2018-03-06T07:31:05.613Z,89.54
2018-03-06T07:32:05.861Z,89.54
2018-03-06T07:33:06.115Z,89.73
2018-03-06T07:34:06.360Z,88.88
2018-03-06T07:35:06.612Z,89.36
2018-03-06T07:36:06.855Z,88.98
2018-03-06T07:37:07.113Z,88.22
2018-03-06T07:38:07.361Z,88.79
2018-03-06T07:39:07.606Z,88.98
2018-03-06T07:40:07.846Z,89.17
2018-03-06T07:41:08.093Z,89.45
2018-03-06T07:42:08.346Z,89.45
2018-03-06T07:43:08.604Z,89.45
2018-03-06T07:44:08.843Z,89.64
2018-03-06T07:45:09.093Z,89.54
2018-03-06T07:46:09.342Z,89.64
2018-03-06T07:47:09.594Z,89.64
2018-03-06T07:48:09.844Z,89.73
2018-03-06T07:49:10.094Z,89.54
2018-03-06T07:50:10.342Z,89.45
2018-03-06T07:51:10.600Z,89.73
2018-03-06T07:52:10.842Z,89.17
2018-03-06T07:53:11.091Z,88.88
2018-03-06T07:54:11.341Z,88.50
2018-03-06T07:55:11.588Z,88.60
2018-03-06T07:56:11.839Z,88.50
2018-03-06T07:57:12.133Z,88.55
2018-03-06T07:58:12.336Z,89.02
2018-03-06T07:59:12.591Z,88.93
2018-03-06T08:00:12.846Z,88.55
2018-03-06T08:01:13.096Z,88.55
2018-03-06T08:02:13.344Z,88.55
2018-03-06T08:03:13.613Z,88.83
2018-03-06T08:04:13.858Z,88.83
2018-03-06T08:05:14.100Z,88.64
2018-03-06T08:06:14.361Z,88.79
2018-03-06T08:07:14.639Z,89.21
2018-03-06T08:08:14.858Z,89.21
2018-03-06T08:09:15.125Z,89.02
2018-03-06T08:10:15.373Z,89.02
2018-03-06T08:11:15.623Z,88.74
2018-03-06T08:12:15.872Z,88.74
2018-03-06T08:13:16.122Z,88.64
2018-03-06T08:14:16.371Z,88.55
2018-03-06T08:15:16.622Z,87.98
2018-03-06T08:16:16.872Z,88.07
2018-03-06T08:17:17.124Z,87.88
2018-03-06T08:18:17.374Z,87.41
2018-03-06T08:19:17.624Z,87.23
2018-03-06T08:20:17.875Z,87.41
2018-03-06T08:21:18.127Z,87.04
2018-03-06T08:22:18.372Z,87.51
2018-03-06T08:23:18.649Z,87.51
2018-03-06T08:24:18.902Z,87.51
2018-03-06T08:25:19.149Z,87.32
2018-03-06T08:26:19.402Z,87.23
2018-03-06T08:27:19.657Z,87.23
2018-03-06T08:28:19.906Z,87.23
2018-03-06T08:29:20.156Z,87.13
2018-03-06T08:30:20.406Z,86.37
2018-03-06T08:31:20.654Z,85.71
2018-03-06T08:32:20.907Z,85.99
2018-03-06T08:33:21.159Z,86.09
2018-03-06T08:34:42.414Z,86.28
2018-03-06T08:35:21.782Z,86.37
2018-03-06T08:36:22.034Z,86.75
2018-03-06T08:37:22.282Z,87.13
2018-03-06T08:38:22.534Z,87.32
2018-03-06T08:39:22.789Z,87.04
2018-03-06T08:40:23.040Z,87.32
2018-03-06T08:41:23.289Z,87.04
2018-03-06T08:42:23.541Z,86.75
2018-03-06T08:43:23.792Z,86.18
2018-03-06T08:44:24.065Z,86.28
2018-03-06T08:45:24.289Z,86.32
2018-03-06T08:46:24.541Z,85.94
2018-03-06T08:47:24.793Z,86.22
2018-03-06T08:48:25.044Z,86.41
2018-03-06T08:49:25.296Z,86.04
2018-03-06T08:50:25.543Z,85.66
2018-03-06T08:51:25.794Z,85.85
2018-03-06T08:52:26.073Z,85.85
2018-03-06T08:53:26.304Z,85.85
2018-03-06T08:54:26.549Z,85.66
2018-03-06T08:55:26.801Z,85.47
2018-03-06T08:56:27.056Z,85.57
2018-03-06T08:57:27.301Z,85.57
2018-03-06T08:58:27.549Z,85.19
2018-03-06T08:59:27.802Z,85.09
2018-03-06T09:00:28.054Z,84.61
2018-03-06T09:01:28.305Z,84.90
2018-03-06T09:02:28.555Z,84.14
2018-03-06T09:03:28.838Z,84.14
2018-03-06T09:04:29.068Z,83.86
2018-03-06T09:05:29.319Z,84.42
2018-03-06T09:06:29.571Z,84.19
2018-03-06T09:07:29.818Z,84.00
2018-03-06T09:08:30.068Z,83.71
2018-03-06T09:09:30.327Z,83.62
2018-03-06T09:10:30.579Z,84.00
2018-03-06T09:11:30.847Z,83.43
2018-03-06T09:12:31.094Z,83.33
2018-03-06T09:13:31.346Z,83.62
2018-03-06T09:14:31.596Z,83.14
2018-03-06T09:15:31.848Z,82.67
2018-03-06T09:16:32.098Z,82.86
2018-03-06T09:17:32.353Z,83.05
2018-03-06T09:18:32.602Z,82.86
2018-03-06T09:19:32.851Z,82.76
2018-03-06T09:20:33.102Z,82.48
2018-03-06T09:21:33.353Z,82.29
2018-03-06T09:22:33.599Z,82.86
2018-03-06T09:23:33.849Z,82.39
2018-03-06T09:24:34.099Z,82.67
2018-03-06T09:25:34.352Z,82.67
2018-03-06T09:26:34.603Z,83.05
2018-03-06T09:27:34.857Z,83.05
2018-03-06T09:28:35.104Z,82.57
2018-03-06T09:29:35.348Z,82.86
2018-03-06T09:30:35.611Z,82.48
2018-03-06T09:31:35.871Z,82.01
2018-03-06T09:32:36.121Z,81.20
2018-03-06T09:33:36.374Z,81.38
2018-03-06T09:34:36.625Z,81.34
2018-03-06T09:35:36.873Z,81.06
2018-03-06T09:36:37.126Z,80.77
2018-03-06T09:37:37.373Z,80.68
2018-03-06T09:38:37.629Z,81.44
2018-03-06T09:39:37.877Z,81.63
2018-03-06T09:40:38.130Z,81.63
2018-03-06T09:41:38.401Z,82.67
2018-03-06T09:42:38.635Z,81.92
2018-03-06T09:43:38.888Z,81.67
2018-03-06T09:44:39.142Z,81.76
2018-03-06T09:45:39.397Z,81.86
2018-03-06T09:46:39.647Z,82.24
2018-03-06T09:47:39.898Z,81.57
2018-03-06T09:48:40.151Z,81.20
2018-03-06T09:49:40.402Z,80.72
2018-03-06T09:50:40.653Z,80.15
2018-03-06T09:51:40.906Z,80.53
2018-03-06T09:52:41.155Z,80.34
2018-03-06T09:53:41.410Z,79.96
2018-03-06T09:54:41.659Z,79.30
2018-03-06T09:55:41.906Z,78.92
2018-03-06T09:56:42.156Z,79.21
2018-03-06T09:57:42.411Z,79.21
2018-03-06T09:58:42.654Z,79.21
2018-03-06T09:59:42.920Z,78.92
2018-03-06T10:00:43.177Z,78.96
2018-03-06T10:01:43.426Z,79.72
2018-03-06T10:02:43.677Z,79.15
2018-03-06T10:03:43.932Z,78.58
2018-03-06T10:04:44.182Z,78.39
2018-03-06T10:05:44.432Z,78.11
2018-03-06T10:06:44.679Z,78.11
2018-03-06T10:07:44.931Z,78.11
2018-03-06T10:08:45.182Z,78.39
2018-03-06T10:09:45.439Z,77.83
2018-03-06T10:10:45.688Z,77.64
2018-03-06T10:11:45.939Z,76.87
2018-03-06T10:12:46.189Z,76.97
2018-03-06T10:13:46.444Z,77.54
2018-03-06T10:14:46.695Z,77.54
2018-03-06T10:15:46.946Z,77.86
2018-03-06T10:16:47.200Z,77.39
2018-03-06T10:17:47.451Z,77.39
2018-03-06T10:18:47.704Z,76.82
2018-03-06T10:19:47.954Z,76.34
2018-03-06T10:20:48.208Z,76.25
2018-03-06T10:21:48.459Z,75.49
2018-03-06T10:22:48.714Z,75.78
2018-03-06T10:23:48.988Z,75.68
2018-03-06T10:24:49.219Z,75.59
2018-03-06T10:25:49.470Z,75.68
2018-03-06T10:26:49.731Z,75.40
2018-03-06T10:27:49.979Z,75.11
2018-03-06T10:28:50.235Z,74.16
2018-03-06T10:29:50.488Z,74.45
2018-03-06T10:30:50.739Z,73.88
2018-03-06T10:31:51.002Z,73.69
2018-03-06T10:32:51.255Z,73.79
2018-03-06T10:33:51.509Z,73.50
2018-03-06T10:34:51.757Z,73.31
2018-03-06T10:35:52.012Z,72.93
2018-03-06T10:36:52.263Z,73.35
2018-03-06T10:37:52.513Z,72.49
2018-03-06T10:38:52.763Z,72.59
2018-03-06T10:39:53.013Z,72.02
2018-03-06T10:40:53.268Z,72.21
2018-03-06T10:41:53.519Z,72.21
2018-03-06T10:42:53.769Z,72.02
2018-03-06T10:43:54.082Z,72.97
2018-03-06T10:44:54.278Z,72.40
2018-03-06T10:45:54.534Z,72.21
2018-03-06T10:46:54.787Z,71.45
2018-03-06T10:47:55.040Z,71.73
2018-03-06T10:48:55.298Z,71.73
2018-03-06T10:49:55.550Z,71.36
2018-03-06T10:50:55.807Z,71.07
2018-03-06T10:51:56.061Z,70.50
2018-03-06T10:52:56.317Z,70.69
2018-03-06T10:53:56.568Z,70.82
2018-03-06T10:54:56.826Z,70.44
2018-03-06T10:55:57.074Z,70.92
2018-03-06T10:56:57.327Z,71.01
2018-03-06T10:57:57.575Z,70.35
2018-03-06T10:58:57.831Z,69.87
2018-03-06T10:59:58.089Z,69.68
2018-03-06T11:00:58.343Z,69.59
2018-03-06T11:01:58.600Z,69.21
2018-03-06T11:02:58.856Z,69.59
2018-03-06T11:03:59.106Z,69.21
2018-03-06T11:04:59.365Z,69.68
2018-03-06T11:05:59.614Z,69.81
2018-03-06T11:06:59.864Z,69.40
2018-03-06T11:08:00.133Z,69.02
2018-03-06T11:09:00.388Z,69.05
2018-03-06T11:10:00.636Z,69.34
2018-03-06T11:11:00.886Z,68.77
2018-03-06T11:12:01.140Z,68.29
2018-03-06T11:13:01.391Z,68.96
2018-03-06T11:14:01.649Z,68.19
2018-03-06T11:15:01.903Z,68.58
2018-03-06T11:16:02.155Z,67.82
2018-03-06T11:17:02.414Z,67.91
2018-03-06T11:18:02.668Z,68.01
2018-03-06T11:19:02.920Z,67.25
2018-03-06T11:20:03.175Z,66.58
2018-03-06T11:21:03.429Z,65.92
2018-03-06T11:22:03.680Z,66.14
2018-03-06T11:23:03.940Z,65.73
2018-03-06T11:24:04.196Z,66.20
2018-03-06T11:25:04.448Z,66.71
2018-03-06T11:26:04.705Z,66.52
2018-03-06T11:27:04.961Z,67.00
2018-03-06T11:28:05.214Z,66.33
2018-03-06T11:29:05.466Z,65.86
2018-03-06T11:30:05.722Z,65.76
2018-03-06T11:31:05.976Z,66.33
2018-03-06T11:32:06.228Z,66.05
2018-03-06T11:33:06.483Z,66.14
2018-03-06T11:34:06.736Z,65.76
2018-03-06T11:35:06.990Z,66.14
2018-03-06T11:36:07.245Z,65.95
2018-03-06T11:37:07.500Z,65.47
2018-03-06T11:38:07.749Z,66.24
2018-03-06T11:39:08.006Z,65.86
2018-03-06T11:40:08.260Z,65.67
2018-03-06T11:41:08.516Z,65.57
2018-03-06T11:42:08.767Z,65.57
2018-03-06T11:43:09.016Z,65.19
2018-03-06T11:44:09.276Z,65.19
2018-03-06T11:45:09.530Z,65.22
2018-03-06T11:46:09.785Z,64.94
2018-03-06T11:47:10.026Z,64.65
2018-03-06T11:48:10.299Z,64.65
2018-03-06T11:49:10.556Z,64.75
2018-03-06T11:50:10.808Z,63.60
2018-03-06T11:51:11.065Z,62.94
2018-03-06T11:52:11.325Z,62.65
2018-03-06T11:53:11.580Z,63.04
2018-03-06T11:54:11.835Z,62.75
2018-03-06T11:55:12.081Z,62.18
2018-03-06T11:56:12.338Z,62.30
2018-03-06T11:57:12.606Z,62.27
2018-03-06T11:58:12.860Z,62.40
2018-03-06T11:59:13.116Z,61.83
2018-03-06T12:00:13.369Z,62.02
2018-03-06T12:01:13.629Z,62.21
2018-03-06T12:02:13.887Z,62.49
2018-03-06T12:03:14.146Z,61.55
2018-03-06T12:04:14.402Z,61.64
2018-03-06T12:05:14.656Z,60.97
2018-03-06T12:06:14.910Z,61.64
2018-03-06T12:07:15.168Z,61.26
2018-03-06T12:08:15.426Z,60.50
2018-03-06T12:09:15.680Z,60.41
2018-03-06T12:10:15.934Z,60.50
2018-03-06T12:11:16.196Z,60.69
2018-03-06T12:12:16.496Z,61.19
2018-03-06T12:13:16.701Z,61.07
2018-03-06T12:14:16.959Z,60.78
2018-03-06T12:15:17.215Z,61.35
2018-03-06T12:16:17.583Z,60.50
2018-03-06T12:17:17.722Z,60.24
2018-03-06T12:18:17.975Z,60.21
2018-03-06T12:19:18.233Z,59.67
2018-03-06T12:20:18.491Z,59.93
2018-03-06T12:21:18.743Z,58.98
2018-03-06T12:22:18.997Z,59.67
2018-03-06T12:23:19.251Z,59.39
2018-03-06T12:24:19.505Z,59.48
2018-03-06T12:25:19.761Z,59.67
2018-03-06T12:26:20.021Z,58.91
2018-03-06T12:27:20.276Z,59.48
2018-03-06T12:28:20.531Z,58.81
2018-03-06T12:29:20.785Z,59.29
2018-03-06T12:30:21.043Z,58.72
2018-03-06T12:31:21.295Z,59.77
2018-03-06T12:32:21.557Z,59.01
2018-03-06T12:33:21.820Z,58.44
2018-03-06T12:34:22.090Z,59.10
2018-03-06T12:35:22.350Z,58.94
2018-03-06T12:36:22.606Z,59.32
2018-03-06T12:37:22.864Z,58.75
2018-03-06T12:38:23.114Z,58.75
2018-03-06T12:39:23.382Z,58.37
2018-03-06T12:40:23.635Z,58.84
2018-03-06T12:41:23.888Z,58.37
2018-03-06T12:42:24.147Z,58.37
2018-03-06T12:43:24.405Z,58.28
2018-03-06T12:44:24.661Z,57.42
2018-03-06T12:45:24.919Z,57.32
2018-03-06T12:46:25.174Z,57.51
2018-03-06T12:47:25.434Z,57.32
2018-03-06T12:48:25.685Z,57.42
2018-03-06T12:49:25.943Z,56.94
2018-03-06T12:50:26.202Z,56.75
2018-03-06T12:51:26.459Z,57.60
2018-03-06T12:52:26.715Z,57.70
2018-03-06T12:53:26.968Z,56.94
2018-03-06T12:54:27.230Z,57.42
2018-03-06T12:55:27.491Z,56.09